createdAt,value
2018-06-20T00:01:24.166Z,17.90
2018-06-20T00:03:52.582Z,17.90
2018-06-20T00:08:52.708Z,17.90
2018-06-20T00:11:23.869Z,17.90
2018-06-20T00:13:53.069Z,17.90
2018-06-20T00:16:21.477Z,17.80
2018-06-20T00:18:49.985Z,17.70
2018-06-20T00:21:18.549Z,17.70
2018-06-20T00:23:46.975Z,17.60
2018-06-20T00:26:15.479Z,17.60
2018-06-20T00:28:43.959Z,17.60
2018-06-20T00:31:12.377Z,17.60
2018-06-20T00:33:40.987Z,17.60
2018-06-20T00:36:09.531Z,17.60
2018-06-20T00:38:37.934Z,17.50
2018-06-20T00:43:34.738Z,17.40
2018-06-20T00:46:03.253Z,17.40
2018-06-20T00:48:31.780Z,17.40
2018-06-20T00:51:00.190Z,17.40
2018-06-20T00:53:28.703Z,17.30
2018-06-20T00:56:08.394Z,17.30
2018-06-20T00:58:36.892Z,17.30
2018-06-20T01:01:05.724Z,17.20
2018-06-20T01:03:34.184Z,17.20
2018-06-20T01:06:02.680Z,17.20
2018-06-20T01:08:32.051Z,17.20
2018-06-20T01:13:28.584Z,17.20
2018-06-20T01:15:56.988Z,17.20
2018-06-20T01:18:25.416Z,17.10
2018-06-20T01:20:53.828Z,17.10
2018-06-20T01:23:22.232Z,17.10
2018-06-20T01:25:51.466Z,17.10
2018-06-20T01:28:21.156Z,17.10
2018-06-20T01:30:50.838Z,17.10
2018-06-20T01:33:19.662Z,17.00
2018-06-20T01:38:16.344Z,16.90
2018-06-20T01:40:44.940Z,16.80
2018-06-20T01:43:13.471Z,16.80
2018-06-20T01:45:42.485Z,16.70
2018-06-20T01:48:10.896Z,16.70
2018-06-20T01:53:07.413Z,16.70
2018-06-20T01:55:35.842Z,16.70
2018-06-20T02:00:32.453Z,16.70
2018-06-20T02:03:00.927Z,16.70
2018-06-20T02:05:29.359Z,16.70
2018-06-20T02:10:26.086Z,16.60
2018-06-20T02:12:54.499Z,16.60
2018-06-20T02:15:22.981Z,16.50
2018-06-20T02:17:51.466Z,16.40
2018-06-20T02:20:20.464Z,16.40
2018-06-20T02:22:49.091Z,16.30
2018-06-20T02:25:17.522Z,16.30
2018-06-20T02:27:45.893Z,16.30
2018-06-20T02:30:14.301Z,16.20
2018-06-20T02:32:42.736Z,16.20
2018-06-20T02:35:11.150Z,16.10
2018-06-20T02:37:39.632Z,16.10
2018-06-20T02:40:08.041Z,16.00
2018-06-20T02:42:36.449Z,15.90
2018-06-20T02:47:38.380Z,15.90
2018-06-20T02:50:06.874Z,15.80
2018-06-20T02:52:35.323Z,15.80
2018-06-20T02:55:03.982Z,15.70
2018-06-20T02:57:32.493Z,15.70
2018-06-20T03:00:01.249Z,15.70
2018-06-20T03:02:29.695Z,15.70
2018-06-20T03:04:58.132Z,15.70
2018-06-20T03:07:26.692Z,15.70
2018-06-20T03:09:55.113Z,15.70
2018-06-20T03:12:23.601Z,15.70
2018-06-20T03:14:52.165Z,15.70
2018-06-20T03:17:20.567Z,15.70
2018-06-20T03:19:49.195Z,15.70
2018-06-20T03:22:18.629Z,15.70
2018-06-20T03:24:47.239Z,15.70
2018-06-20T03:29:43.865Z,15.80
2018-06-20T03:32:12.281Z,15.80
2018-06-20T03:34:41.486Z,15.70
2018-06-20T03:39:37.996Z,15.80
2018-06-20T03:42:06.457Z,15.80
2018-06-20T03:44:34.875Z,15.80
2018-06-20T03:47:03.336Z,15.80
2018-06-20T03:49:31.730Z,15.90
2018-06-20T03:52:00.180Z,16.00
2018-06-20T03:54:28.634Z,16.00
2018-06-20T03:56:57.064Z,16.10
2018-06-20T03:59:25.616Z,16.20
2018-06-20T04:01:54.113Z,16.20
2018-06-20T04:04:22.575Z,16.30
2018-06-20T04:06:51.017Z,16.30
2018-06-20T04:09:19.569Z,16.40
2018-06-20T04:14:16.239Z,16.50
2018-06-20T04:16:44.666Z,16.50
2018-06-20T04:19:13.102Z,16.60
2018-06-20T04:21:41.627Z,16.60
2018-06-20T04:24:10.064Z,16.70
2018-06-20T04:26:38.527Z,16.70
2018-06-20T04:29:07.076Z,16.80
2018-06-20T04:31:35.510Z,16.80
2018-06-20T04:34:04.038Z,16.80
2018-06-20T04:36:32.526Z,16.90
2018-06-20T04:39:00.935Z,16.90
2018-06-20T04:41:29.351Z,17.00
2018-06-20T04:43:57.786Z,17.00
2018-06-20T04:46:26.257Z,17.10
2018-06-20T04:48:54.677Z,17.20
2018-06-20T04:51:23.106Z,17.30
2018-06-20T04:53:51.575Z,17.40
2018-06-20T04:56:20.030Z,17.50
2018-06-20T04:58:48.564Z,17.60
2018-06-20T05:03:45.146Z,17.70
2018-06-20T05:06:14.608Z,17.70
2018-06-20T05:08:43.113Z,17.80
2018-06-20T05:11:11.552Z,17.80
2018-06-20T05:13:40.098Z,17.80
2018-06-20T05:16:08.579Z,17.90
2018-06-20T05:18:37.144Z,18.00
2018-06-20T05:21:05.591Z,18.10
2018-06-20T05:23:34.119Z,18.20
2018-06-20T05:26:02.591Z,18.20
2018-06-20T05:28:31.485Z,18.30
2018-06-20T05:30:59.873Z,18.30
2018-06-20T05:33:28.436Z,18.30
2018-06-20T05:35:56.865Z,18.30
2018-06-20T05:38:25.385Z,18.40
2018-06-20T05:43:22.054Z,18.60
2018-06-20T05:45:50.604Z,18.70
2018-06-20T05:48:20.635Z,18.80
2018-06-20T05:50:49.095Z,18.90
2018-06-20T05:53:17.580Z,18.90
2018-06-20T05:55:46.048Z,18.90
2018-06-20T05:58:14.467Z,18.80
2018-06-20T06:05:39.609Z,18.90
2018-06-20T06:08:12.008Z,19.00
2018-06-20T06:10:41.198Z,19.00
2018-06-20T06:13:09.786Z,19.00
2018-06-20T06:15:38.230Z,19.10
2018-06-20T06:18:06.750Z,19.20
2018-06-20T06:20:35.179Z,19.30
2018-06-20T06:23:03.725Z,19.30
2018-06-20T06:25:32.204Z,19.40
2018-06-20T06:28:00.784Z,19.50
2018-06-20T06:30:29.243Z,19.50
2018-06-20T06:32:57.870Z,19.60
2018-06-20T06:35:26.304Z,19.70
2018-06-20T06:37:54.751Z,19.70
2018-06-20T06:40:23.193Z,19.80
2018-06-20T06:42:52.651Z,19.90
2018-06-20T06:45:21.188Z,20.10
2018-06-20T06:47:49.846Z,20.10
2018-06-20T06:50:18.337Z,20.20
2018-06-20T06:52:46.855Z,20.20
2018-06-20T06:55:15.321Z,20.30
2018-06-20T06:57:43.785Z,20.40
2018-06-20T07:00:12.231Z,20.40
2018-06-20T07:02:40.737Z,20.40
2018-06-20T07:07:37.281Z,20.60
2018-06-20T07:10:05.726Z,20.70
2018-06-20T07:12:34.192Z,20.80
2018-06-20T07:15:02.720Z,20.80
2018-06-20T07:17:31.234Z,20.90
2018-06-20T07:22:27.863Z,21.10
2018-06-20T07:24:56.353Z,21.10
2018-06-20T07:27:24.778Z,21.10
2018-06-20T07:29:53.252Z,21.20
2018-06-20T07:32:21.925Z,21.30
2018-06-20T07:34:50.404Z,21.30
2018-06-20T07:37:18.869Z,21.50
2018-06-20T07:39:47.288Z,21.50
2018-06-20T07:42:15.758Z,21.60
2018-06-20T07:44:44.290Z,21.60
2018-06-20T07:47:12.833Z,21.70
2018-06-20T07:49:41.412Z,21.80
2018-06-20T07:52:09.835Z,21.90
2018-06-20T07:54:38.275Z,22.10
2018-06-20T07:57:06.727Z,22.20
2018-06-20T07:59:40.618Z,22.30
2018-06-20T08:03:26.582Z,22.40
2018-06-20T08:06:00.469Z,22.50
2018-06-20T08:08:34.259Z,22.50
2018-06-20T08:11:08.403Z,22.60
2018-06-20T08:13:42.067Z,22.70
2018-06-20T08:16:15.772Z,22.70
2018-06-20T08:18:49.576Z,22.70
2018-06-20T08:21:17.975Z,22.80
2018-06-20T08:23:46.448Z,22.90
2018-06-20T08:26:14.937Z,23.00
2018-06-20T08:31:11.522Z,23.30
2018-06-20T08:33:39.933Z,23.30
2018-06-20T08:36:08.373Z,23.30
2018-06-20T08:38:36.801Z,23.30
2018-06-20T08:41:05.229Z,23.40
2018-06-20T08:43:33.687Z,23.50
2018-06-20T08:46:02.145Z,23.50
2018-06-20T08:48:30.673Z,23.60
2018-06-20T08:50:59.118Z,23.70
2018-06-20T08:53:27.575Z,23.70
2018-06-20T08:55:56.032Z,23.80
2018-06-20T08:58:24.440Z,23.90
2018-06-20T09:00:58.223Z,24.00
2018-06-20T09:03:26.641Z,24.10
2018-06-20T09:11:16.881Z,24.10
2018-06-20T09:13:50.794Z,24.20
2018-06-20T09:16:24.568Z,24.30
2018-06-20T09:18:58.222Z,24.30
2018-06-20T09:21:26.686Z,24.30
2018-06-20T09:23:55.096Z,24.40
2018-06-20T09:26:23.780Z,24.40
2018-06-20T09:28:52.205Z,24.50
2018-06-20T09:31:20.659Z,24.50
2018-06-20T09:33:49.123Z,24.50
2018-06-20T09:36:17.595Z,24.60
2018-06-20T09:41:14.182Z,24.70
2018-06-20T09:43:42.612Z,24.80
2018-06-20T09:46:11.030Z,24.80
2018-06-20T09:48:39.492Z,24.90
2018-06-20T09:51:08.025Z,24.90
2018-06-20T09:53:36.535Z,24.90
2018-06-20T09:56:04.969Z,24.90
2018-06-20T09:58:33.386Z,24.90
2018-06-20T10:01:07.285Z,25.00
2018-06-20T10:03:40.986Z,25.00
2018-06-20T10:06:14.858Z,24.90
2018-06-20T10:08:48.660Z,25.00
2018-06-20T10:11:22.397Z,25.10
2018-06-20T10:13:53.799Z,25.10
2018-06-20T10:16:22.323Z,25.10
2018-06-20T10:18:50.732Z,25.20
2018-06-20T10:21:20.291Z,25.10
2018-06-20T10:23:48.562Z,25.20
2018-06-20T10:26:17.051Z,25.20
2018-06-20T10:28:45.490Z,25.30
2018-06-20T10:31:14.041Z,25.30
2018-06-20T10:33:42.495Z,25.30
2018-06-20T10:36:10.923Z,25.30
2018-06-20T10:41:07.649Z,25.30
2018-06-20T10:43:36.242Z,25.40
2018-06-20T10:46:10.138Z,25.50
2018-06-20T10:48:38.564Z,25.60
2018-06-20T10:51:07.146Z,25.60
2018-06-20T10:56:03.811Z,25.70
2018-06-20T11:01:11.369Z,25.70
2018-06-20T11:03:45.233Z,25.80
2018-06-20T11:06:19.939Z,25.80
2018-06-20T11:08:53.746Z,25.80
2018-06-20T11:11:27.960Z,25.80
2018-06-20T11:13:56.545Z,25.90
2018-06-20T11:16:25.053Z,25.90
2018-06-20T11:21:23.344Z,26.00
2018-06-20T11:23:51.869Z,26.00
2018-06-20T11:26:21.096Z,25.90
2018-06-20T11:28:49.594Z,26.00
2018-06-20T11:31:18.183Z,26.00
2018-06-20T11:33:46.784Z,26.00
2018-06-20T11:36:15.199Z,26.10
2018-06-20T11:38:43.655Z,26.20
2018-06-20T11:41:12.053Z,26.30
2018-06-20T11:43:40.649Z,26.40
2018-06-20T11:46:14.321Z,26.50
2018-06-20T11:48:42.888Z,26.60
2018-06-20T11:51:11.416Z,26.60
2018-06-20T11:53:39.945Z,26.50
2018-06-20T11:56:08.391Z,26.50
2018-06-20T11:58:42.545Z,26.40
2018-06-20T12:01:16.285Z,26.40
2018-06-20T12:03:50.145Z,26.40
2018-06-20T12:07:25.937Z,26.40
2018-06-20T12:09:59.624Z,26.40
2018-06-20T12:12:33.566Z,26.50
2018-06-20T12:15:07.334Z,26.50
2018-06-20T12:17:41.243Z,26.50
2018-06-20T12:20:14.952Z,26.50
2018-06-20T12:22:48.786Z,26.50
2018-06-20T12:33:03.416Z,26.50
2018-06-20T12:38:17.136Z,26.70
2018-06-20T12:40:50.919Z,26.80
2018-06-20T12:44:26.022Z,26.80
2018-06-20T12:47:25.297Z,26.80
2018-06-20T12:50:03.722Z,26.80
2018-06-20T12:52:32.520Z,26.80
2018-06-20T12:55:01.226Z,26.80
2018-06-20T12:57:30.015Z,26.80
2018-06-20T12:59:58.605Z,26.70
2018-06-20T13:02:27.052Z,26.80
2018-06-20T13:04:55.507Z,26.80
2018-06-20T13:07:24.181Z,27.00
2018-06-20T13:12:20.825Z,26.90
2018-06-20T13:14:49.462Z,26.90
2018-06-20T13:17:18.021Z,27.00
2018-06-20T13:19:46.755Z,27.00
2018-06-20T13:22:15.316Z,26.90
2018-06-20T13:24:43.954Z,26.90
2018-06-20T13:27:17.824Z,27.00
2018-06-20T13:29:46.260Z,27.00
2018-06-20T13:32:19.889Z,27.00
2018-06-20T13:34:53.680Z,27.00
2018-06-20T13:37:27.419Z,27.00
2018-06-20T13:40:01.219Z,27.00
2018-06-20T13:48:36.514Z,27.10
2018-06-20T13:51:04.930Z,27.10
2018-06-20T13:53:33.346Z,27.10
2018-06-20T13:56:02.407Z,27.00
2018-06-20T13:58:30.781Z,26.90
2018-06-20T14:00:59.388Z,26.80
2018-06-20T14:03:27.814Z,26.80
2018-06-20T14:05:56.333Z,26.80
2018-06-20T14:08:24.779Z,26.80
2018-06-20T14:10:53.244Z,26.80
2018-06-20T14:13:21.707Z,26.80
2018-06-20T14:15:50.116Z,26.80
2018-06-20T14:18:18.537Z,26.80
2018-06-20T14:20:52.267Z,26.90
2018-06-20T14:23:20.725Z,26.90
2018-06-20T14:25:49.136Z,26.80
2018-06-20T14:28:17.619Z,26.90
2018-06-20T14:30:51.360Z,26.80
2018-06-20T14:35:58.760Z,26.80
2018-06-20T14:39:30.638Z,26.80
2018-06-20T14:42:04.500Z,26.80
2018-06-20T14:44:32.972Z,26.80
2018-06-20T14:47:01.572Z,26.80
2018-06-20T14:51:58.120Z,27.10
2018-06-20T14:54:26.557Z,27.10
2018-06-20T14:56:55.042Z,27.20
2018-06-20T14:59:23.531Z,27.20
2018-06-20T15:01:51.979Z,27.20
2018-06-20T15:04:20.456Z,27.20
2018-06-20T15:06:48.912Z,27.20
2018-06-20T15:09:17.411Z,27.20
2018-06-20T15:11:45.907Z,27.20
2018-06-20T15:14:14.365Z,27.20
2018-06-20T15:16:48.208Z,27.10
2018-06-20T15:19:16.767Z,27.10
2018-06-20T15:21:45.253Z,27.10
2018-06-20T15:24:13.692Z,27.10
2018-06-20T15:26:47.470Z,27.10
2018-06-20T15:29:21.299Z,27.10
2018-06-20T15:31:55.962Z,27.10
2018-06-20T15:34:29.837Z,27.10
2018-06-20T15:37:03.612Z,27.10
2018-06-20T15:42:00.470Z,27.20
2018-06-20T15:44:29.083Z,27.20
2018-06-20T15:49:25.730Z,27.10
2018-06-20T15:51:54.154Z,27.10
2018-06-20T15:54:22.609Z,27.10
2018-06-20T15:56:51.025Z,27.10
2018-06-20T15:59:19.481Z,27.10
2018-06-20T16:04:17.045Z,27.00
2018-06-20T16:06:45.519Z,26.80
2018-06-20T16:09:19.497Z,26.80
2018-06-20T16:11:48.457Z,26.80
2018-06-20T16:16:45.193Z,26.70
2018-06-20T16:19:18.973Z,26.70
2018-06-20T16:21:52.908Z,26.70
2018-06-20T16:24:26.560Z,26.80
2018-06-20T16:27:00.672Z,26.80
2018-06-20T16:32:03.050Z,26.80
2018-06-20T16:34:31.581Z,26.80
2018-06-20T16:37:00.061Z,26.80
2018-06-20T16:39:28.781Z,26.80
2018-06-20T16:41:57.309Z,26.80
2018-06-20T16:44:25.887Z,26.80
2018-06-20T16:49:22.764Z,26.80
2018-06-20T16:51:51.364Z,26.80
2018-06-20T16:56:48.040Z,26.70
2018-06-20T16:59:16.855Z,26.70
2018-06-20T17:01:50.868Z,26.70
2018-06-20T17:04:19.433Z,26.70
2018-06-20T17:06:48.117Z,26.60
2018-06-20T17:09:16.661Z,26.60
2018-06-20T17:11:49.365Z,26.60
2018-06-20T17:16:56.802Z,26.50
2018-06-20T17:19:30.619Z,26.50
2018-06-20T17:22:04.536Z,26.40
2018-06-20T17:25:38.248Z,26.40
2018-06-20T17:28:06.722Z,26.40
2018-06-20T17:30:35.340Z,26.40
2018-06-20T17:35:32.163Z,26.40
2018-06-20T17:38:00.745Z,26.30
2018-06-20T17:40:29.783Z,26.30
2018-06-20T17:47:54.734Z,26.30
2018-06-20T17:52:51.330Z,26.20
2018-06-20T17:55:19.859Z,26.20
2018-06-20T17:57:48.377Z,26.10
2018-06-20T18:00:17.036Z,26.10
2018-06-20T18:02:45.536Z,26.10
2018-06-20T18:05:20.001Z,26.00
2018-06-20T18:07:54.055Z,26.00
2018-06-20T18:10:27.923Z,26.00
2018-06-20T18:13:00.594Z,26.00
2018-06-20T18:18:02.615Z,25.80
2018-06-20T18:20:31.154Z,25.80
2018-06-20T18:22:59.767Z,25.70
2018-06-20T18:25:28.325Z,25.70
2018-06-20T18:27:56.781Z,25.60
2018-06-20T18:30:25.396Z,25.60
2018-06-20T18:32:53.830Z,25.60
2018-06-20T18:35:22.460Z,25.50
2018-06-20T18:37:51.071Z,25.50
2018-06-20T18:42:49.135Z,25.30
2018-06-20T18:45:18.007Z,25.20
2018-06-20T18:47:52.177Z,25.20
2018-06-20T18:50:20.789Z,25.10
2018-06-20T18:52:49.900Z,25.10
2018-06-20T18:55:18.883Z,25.00
2018-06-20T18:57:53.081Z,24.90
2018-06-20T19:00:30.714Z,24.90
2018-06-20T19:03:05.157Z,24.80
2018-06-20T19:05:38.954Z,24.80
2018-06-20T19:08:13.008Z,24.70
2018-06-20T19:13:11.293Z,24.70
2018-06-20T19:15:40.179Z,24.60
2018-06-20T19:18:09.191Z,24.50
2018-06-20T19:20:37.979Z,24.40
2018-06-20T19:23:06.960Z,24.40
2018-06-20T19:25:35.685Z,24.30
2018-06-20T19:28:04.827Z,24.30
2018-06-20T19:30:33.616Z,24.20
2018-06-20T19:33:03.981Z,24.20
2018-06-20T19:35:33.840Z,24.10
2018-06-20T19:38:03.537Z,24.10
2018-06-20T19:40:33.089Z,24.00
2018-06-20T19:43:01.928Z,23.90
2018-06-20T19:45:31.385Z,23.90
2018-06-20T19:50:28.340Z,23.80
2018-06-20T19:52:57.491Z,23.70
2018-06-20T19:55:27.273Z,23.70
2018-06-20T19:57:55.890Z,23.70
2018-06-20T20:00:24.583Z,23.60
2018-06-20T20:02:53.432Z,23.60
2018-06-20T20:05:22.005Z,23.50
2018-06-20T20:07:51.601Z,23.40
2018-06-20T20:12:48.650Z,23.40
2018-06-20T20:15:17.320Z,23.30
2018-06-20T20:17:46.110Z,23.30
2018-06-20T20:20:15.149Z,23.20
2018-06-20T20:22:44.435Z,23.20
2018-06-20T20:27:41.880Z,23.10
2018-06-20T20:30:10.658Z,23.00
2018-06-20T20:32:40.025Z,22.90
2018-06-20T20:35:08.950Z,22.90
2018-06-20T20:37:37.697Z,22.80
2018-06-20T20:40:06.360Z,22.80
2018-06-20T20:42:35.079Z,22.80
2018-06-20T20:45:04.519Z,22.60
2018-06-20T20:47:33.327Z,22.60
2018-06-20T20:50:01.987Z,22.50
2018-06-20T20:52:30.714Z,22.40
2018-06-20T20:54:59.307Z,22.40
2018-06-20T20:57:27.871Z,22.30
2018-06-20T20:59:56.563Z,22.20
2018-06-20T21:02:25.236Z,22.20
2018-06-20T21:04:55.068Z,22.10
2018-06-20T21:07:23.614Z,22.10
2018-06-20T21:09:52.249Z,22.00
2018-06-20T21:12:20.854Z,22.00
2018-06-20T21:14:49.397Z,21.90
2018-06-20T21:17:17.938Z,21.90
2018-06-20T21:19:47.212Z,21.90
2018-06-20T21:22:15.726Z,21.90
2018-06-20T21:24:46.572Z,21.80
2018-06-20T21:27:15.126Z,21.80
2018-06-20T21:29:43.730Z,21.70
2018-06-20T21:32:12.929Z,21.60
2018-06-20T21:34:41.403Z,21.60
2018-06-20T21:37:09.927Z,21.60
2018-06-20T21:39:38.526Z,21.60
2018-06-20T21:42:07.139Z,21.50
2018-06-20T21:44:35.635Z,21.50
2018-06-20T21:47:04.151Z,21.50
2018-06-20T21:49:32.579Z,21.40
2018-06-20T21:52:01.067Z,21.40
2018-06-20T21:54:29.512Z,21.30
2018-06-20T21:56:57.964Z,21.30
2018-06-20T21:59:26.416Z,21.30
2018-06-20T22:01:54.871Z,21.20
2018-06-20T22:04:23.903Z,21.20
2018-06-20T22:06:52.356Z,21.10
2018-06-20T22:09:21.608Z,21.10
2018-06-20T22:11:50.053Z,21.00
2018-06-20T22:14:18.506Z,21.00
2018-06-20T22:16:47.046Z,20.90
2018-06-20T22:19:15.547Z,20.90
2018-06-20T22:21:44.048Z,20.80
2018-06-20T22:24:12.474Z,20.80
2018-06-20T22:26:40.941Z,20.70
2018-06-20T22:29:09.470Z,20.70
2018-06-20T22:31:38.012Z,20.60
2018-06-20T22:34:06.450Z,20.60
2018-06-20T22:36:34.955Z,20.60
2018-06-20T22:39:03.579Z,20.50
2018-06-20T22:41:32.015Z,20.40
2018-06-20T22:44:00.437Z,20.30
2018-06-20T22:46:28.842Z,20.20
2018-06-20T22:48:57.386Z,20.20
2018-06-20T22:53:53.948Z,20.20
2018-06-20T22:58:50.586Z,20.10
2018-06-20T23:01:18.966Z,20.20
2018-06-20T23:03:47.400Z,20.10
2018-06-20T23:06:15.784Z,20.00
2018-06-20T23:08:44.518Z,19.90
2018-06-20T23:11:13.623Z,19.90
2018-06-20T23:13:42.141Z,19.80
2018-06-20T23:16:10.570Z,19.80
2018-06-20T23:18:38.993Z,19.70
2018-06-20T23:21:07.593Z,19.70
2018-06-20T23:23:36.018Z,19.70
2018-06-20T23:26:04.528Z,19.60
2018-06-20T23:28:32.933Z,19.60
2018-06-20T23:31:01.226Z,19.60
2018-06-20T23:33:29.669Z,19.60
2018-06-20T23:35:58.103Z,19.50
2018-06-20T23:38:26.540Z,19.50
2018-06-20T23:40:55.043Z,19.50
2018-06-20T23:43:23.465Z,19.40
2018-06-20T23:50:48.362Z,19.40
2018-06-20T23:53:16.780Z,19.30
2018-06-20T23:55:45.216Z,19.30
2018-06-20T23:58:13.594Z,19.30
